createdAt,value
2022-10-01T00:01:44.171Z,94.12
2022-10-01T00:04:11.110Z,94.37
2022-10-01T00:06:37.926Z,94.42
2022-10-01T00:09:04.790Z,94.56
2022-10-01T00:11:32.057Z,94.49
2022-10-01T00:13:59.126Z,94.67
2022-10-01T00:16:28.738Z,94.58
2022-10-01T00:18:56.433Z,94.73
2022-10-01T00:21:29.252Z,94.76
2022-10-01T00:23:58.744Z,94.96
2022-10-01T00:26:28.483Z,94.90
2022-10-01T00:28:58.162Z,95.01
2022-10-01T00:31:26.182Z,95.02
2022-10-01T00:33:58.484Z,95.10
2022-10-01T00:36:26.598Z,95.20
2022-10-01T00:39:00.846Z,95.25
2022-10-01T00:41:33.806Z,95.35
2022-10-01T00:44:34.852Z,95.39
2022-10-01T00:47:43.316Z,95.45
2022-10-01T00:50:16.585Z,95.35
2022-10-01T00:52:49.966Z,95.42
2022-10-01T00:55:24.845Z,95.58
2022-10-01T00:57:52.554Z,95.60
2022-10-01T01:00:19.541Z,95.71
2022-10-01T01:02:46.715Z,95.59
2022-10-01T01:05:14.369Z,95.89
2022-10-01T01:07:46.623Z,95.88
2022-10-01T01:10:16.455Z,95.83
2022-10-01T01:13:21.643Z,95.89
2022-10-01T01:16:03.677Z,95.89
2022-10-01T01:18:36.631Z,96.06
2022-10-01T01:21:14.794Z,96.13
2022-10-01T01:24:16.295Z,96.17
2022-10-01T01:27:00.904Z,96.13
2022-10-01T01:29:39.643Z,96.36
2022-10-01T01:32:20.552Z,96.21
2022-10-01T01:34:51.236Z,96.13
2022-10-01T01:37:22.645Z,96.28
2022-10-01T01:39:53.586Z,96.33
2022-10-01T01:42:47.464Z,96.28
2022-10-01T01:45:20.185Z,96.31
2022-10-01T01:47:47.500Z,96.39
2022-10-01T01:50:16.957Z,96.37
2022-10-01T01:52:43.847Z,96.64
2022-10-01T01:55:11.153Z,96.46
2022-10-01T01:57:43.762Z,96.58
2022-10-01T02:00:12.598Z,96.57
2022-10-01T02:02:43.781Z,96.58
2022-10-01T02:05:17.313Z,96.66
2022-10-01T02:08:00.129Z,96.72
2022-10-01T02:10:36.390Z,96.76
2022-10-01T02:13:39.183Z,96.66
2022-10-01T02:16:22.909Z,96.85
2022-10-01T02:19:02.576Z,96.62
2022-10-01T02:21:42.265Z,96.80
2022-10-01T02:24:14.735Z,96.81
2022-10-01T02:26:44.945Z,96.59
2022-10-01T02:29:15.134Z,96.79
2022-10-01T02:31:42.155Z,96.90
2022-10-01T02:34:12.638Z,96.91
2022-10-01T02:36:42.269Z,96.75
2022-10-01T02:39:11.314Z,96.83
2022-10-01T02:41:38.245Z,96.96
2022-10-01T02:44:14.521Z,97.06
2022-10-01T02:46:52.949Z,97.05
2022-10-01T02:49:20.397Z,97.05
2022-10-01T02:52:24.558Z,97.18
2022-10-01T02:55:00.939Z,97.28
2022-10-01T02:57:29.049Z,97.19
2022-10-01T02:59:59.318Z,97.11
2022-10-01T03:02:28.214Z,97.29
2022-10-01T03:04:59.169Z,97.42
2022-10-01T03:07:28.153Z,97.30
2022-10-01T03:09:55.039Z,97.45
2022-10-01T03:12:22.712Z,97.61
2022-10-01T03:14:50.377Z,97.56
2022-10-01T03:17:17.937Z,97.58
2022-10-01T03:19:44.826Z,97.65
2022-10-01T03:22:14.702Z,97.69
2022-10-01T03:24:41.635Z,97.64
2022-10-01T03:27:08.400Z,97.91
2022-10-01T03:29:35.325Z,97.96
2022-10-01T03:32:02.220Z,97.90
2022-10-01T03:34:29.167Z,98.00
2022-10-01T03:36:56.067Z,97.92
2022-10-01T03:39:22.909Z,97.98
2022-10-01T03:41:50.304Z,98.02
2022-10-01T03:44:17.726Z,98.00
2022-10-01T03:46:44.671Z,98.12
2022-10-01T03:49:11.922Z,98.01
2022-10-01T03:51:39.030Z,98.10
2022-10-01T03:54:08.329Z,97.88
2022-10-01T03:56:36.223Z,98.27
2022-10-01T03:59:03.135Z,98.21
2022-10-01T04:01:31.103Z,98.13
2022-10-01T04:03:58.206Z,98.29
2022-10-01T04:06:25.151Z,98.15
2022-10-01T04:08:52.203Z,98.53
2022-10-01T04:11:19.198Z,98.42
2022-10-01T04:13:45.996Z,98.46
2022-10-01T04:16:13.137Z,98.25
2022-10-01T04:18:40.048Z,98.60
2022-10-01T04:21:07.334Z,98.53
2022-10-01T04:23:34.436Z,98.38
2022-10-01T04:26:02.533Z,98.45
2022-10-01T04:28:30.413Z,98.58
2022-10-01T04:31:17.576Z,98.76
2022-10-01T04:33:44.998Z,98.55
2022-10-01T04:36:12.006Z,98.55
2022-10-01T04:38:38.897Z,98.89
2022-10-01T04:41:06.006Z,98.61
2022-10-01T04:43:33.251Z,98.60
2022-10-01T04:46:00.113Z,98.75
2022-10-01T04:48:27.147Z,98.91
2022-10-01T04:50:54.041Z,98.56
2022-10-01T04:53:21.149Z,98.85
2022-10-01T04:55:48.093Z,98.75
2022-10-01T04:58:14.940Z,98.69
2022-10-01T05:00:41.923Z,98.88
2022-10-01T05:03:08.771Z,98.74
2022-10-01T05:05:35.931Z,98.90
2022-10-01T05:08:03.393Z,98.81
2022-10-01T05:10:30.293Z,98.84
2022-10-01T05:12:58.089Z,98.86
2022-10-01T05:15:24.992Z,98.92
2022-10-01T05:17:51.977Z,98.84
2022-10-01T05:20:27.590Z,99.02
2022-10-01T05:22:55.046Z,98.85
2022-10-01T05:25:22.459Z,98.98
2022-10-01T05:27:49.368Z,98.99
2022-10-01T05:30:24.553Z,98.68
2022-10-01T05:33:00.041Z,98.99
2022-10-01T05:35:27.954Z,99.00
2022-10-01T05:37:56.358Z,98.95
2022-10-01T05:40:25.903Z,99.16
2022-10-01T05:42:53.241Z,98.94
2022-10-01T05:45:21.227Z,98.98
2022-10-01T05:47:49.851Z,99.28
2022-10-01T05:50:16.943Z,98.85
2022-10-01T05:52:53.267Z,98.85
2022-10-01T05:55:20.770Z,98.77
2022-10-01T05:58:02.509Z,98.77
2022-10-01T06:00:30.537Z,98.72
2022-10-01T06:02:59.755Z,98.81
2022-10-01T06:05:27.907Z,99.00
2022-10-01T06:07:54.967Z,98.94
2022-10-01T06:10:23.020Z,98.87
2022-10-01T06:12:50.246Z,98.91
2022-10-01T06:15:18.176Z,99.03
2022-10-01T06:17:45.524Z,99.00
2022-10-01T06:20:15.624Z,98.64
2022-10-01T06:22:44.217Z,98.95
2022-10-01T06:25:12.550Z,99.06
2022-10-01T06:27:40.664Z,99.04
2022-10-01T06:30:08.171Z,99.36
2022-10-01T06:32:35.581Z,99.03
2022-10-01T06:35:03.444Z,99.10
2022-10-01T06:37:30.450Z,99.10
2022-10-01T06:39:57.344Z,99.11
2022-10-01T06:42:24.397Z,98.92
2022-10-01T06:44:51.589Z,99.24
2022-10-01T06:47:18.594Z,99.22
2022-10-01T06:49:47.683Z,99.04
2022-10-01T06:52:33.847Z,99.15
2022-10-01T06:55:01.731Z,99.11
2022-10-01T06:57:29.214Z,99.41
2022-10-01T06:59:56.321Z,99.38
2022-10-01T07:02:28.189Z,99.37
2022-10-01T07:04:59.255Z,99.35
2022-10-01T07:07:37.788Z,99.58
2022-10-01T07:10:07.463Z,99.50
2022-10-01T07:12:36.436Z,99.48
2022-10-01T07:15:04.357Z,99.58
2022-10-01T07:17:31.452Z,99.70
2022-10-01T07:19:59.064Z,99.53
2022-10-01T07:22:26.215Z,99.34
2022-10-01T07:24:53.517Z,99.38
2022-10-01T07:27:20.921Z,99.41
2022-10-01T07:29:47.927Z,99.77
2022-10-01T07:32:15.998Z,99.70
2022-10-01T07:34:43.063Z,99.71
2022-10-01T07:37:10.512Z,99.63
2022-10-01T07:39:37.610Z,99.68
2022-10-01T07:42:05.060Z,99.77
2022-10-01T07:44:32.069Z,99.72
2022-10-01T07:46:59.519Z,99.72
2022-10-01T07:49:26.722Z,99.92
2022-10-01T07:51:54.891Z,99.80
2022-10-01T07:54:22.964Z,99.66
2022-10-01T07:56:53.025Z,99.58
2022-10-01T07:59:19.981Z,99.65
2022-10-01T08:01:51.883Z,99.75
2022-10-01T08:04:39.075Z,99.67
2022-10-01T08:07:08.323Z,99.54
2022-10-01T08:09:35.978Z,99.64
2022-10-01T08:12:06.005Z,99.65
2022-10-01T08:14:32.901Z,99.53
2022-10-01T08:16:59.896Z,99.44
2022-10-01T08:19:27.145Z,99.55
2022-10-01T08:21:55.709Z,99.35
2022-10-01T08:24:22.738Z,99.42
2022-10-01T08:26:56.628Z,99.40
2022-10-01T08:29:23.522Z,99.23
2022-10-01T08:31:50.609Z,99.33
2022-10-01T08:34:17.574Z,99.20
2022-10-01T08:36:44.984Z,99.36
2022-10-01T08:39:13.973Z,99.17
2022-10-01T08:42:03.556Z,99.40
2022-10-01T08:44:44.282Z,99.18
2022-10-01T08:47:26.581Z,99.21
2022-10-01T08:50:00.813Z,99.25
2022-10-01T08:52:34.313Z,99.23
2022-10-01T08:55:06.821Z,99.18
2022-10-01T08:57:59.162Z,99.18
2022-10-01T09:00:29.133Z,99.23
2022-10-01T09:03:00.796Z,99.26
2022-10-01T09:05:47.807Z,99.20
2022-10-01T09:08:53.526Z,99.07
2022-10-01T09:11:42.276Z,99.08
2022-10-01T09:14:27.354Z,98.99
2022-10-01T09:17:30.482Z,99.01
2022-10-01T09:20:21.831Z,98.90
2022-10-01T09:23:18.721Z,98.75
2022-10-01T09:25:50.556Z,98.67
2022-10-01T09:28:22.385Z,98.69
2022-10-01T09:31:21.000Z,98.72
2022-10-01T09:34:11.438Z,98.72
2022-10-01T09:37:00.013Z,98.60
2022-10-01T09:39:57.555Z,98.82
2022-10-01T09:42:27.700Z,98.64
2022-10-01T09:44:54.820Z,98.51
2022-10-01T09:47:26.061Z,98.53
2022-10-01T09:49:53.344Z,98.30
2022-10-01T09:52:31.868Z,98.17
2022-10-01T09:55:01.677Z,97.26
2022-10-01T09:57:36.416Z,96.65
2022-10-01T10:00:22.851Z,96.39
2022-10-01T10:02:52.188Z,96.04
2022-10-01T10:05:26.093Z,95.63
2022-10-01T10:08:03.512Z,94.67
2022-10-01T10:10:37.110Z,94.12
2022-10-01T10:13:10.957Z,94.11
2022-10-01T10:15:57.688Z,94.37
2022-10-01T10:18:36.501Z,95.05
2022-10-01T10:21:08.168Z,95.36
2022-10-01T10:23:35.154Z,95.31
2022-10-01T10:26:06.302Z,95.15
2022-10-01T10:28:44.771Z,94.05
2022-10-01T10:31:24.496Z,93.61
2022-10-01T10:33:57.649Z,93.94
2022-10-01T10:36:30.495Z,94.26
2022-10-01T10:38:58.928Z,94.51
2022-10-01T10:41:28.427Z,94.30
2022-10-01T10:44:04.547Z,93.46
2022-10-01T10:46:42.762Z,93.10
2022-10-01T10:49:21.981Z,93.64
2022-10-01T10:51:56.094Z,93.29
2022-10-01T10:54:32.860Z,91.97
2022-10-01T10:57:03.251Z,89.94
2022-10-01T10:59:32.399Z,89.51
2022-10-01T11:02:06.340Z,89.98
2022-10-01T11:04:43.079Z,89.26
2022-10-01T11:07:13.555Z,88.99
2022-10-01T11:09:57.504Z,89.72
2022-10-01T11:12:40.962Z,89.42
2022-10-01T11:15:30.941Z,88.73
2022-10-01T11:18:10.862Z,89.00
2022-10-01T11:20:41.294Z,88.14
2022-10-01T11:23:51.113Z,86.34
2022-10-01T11:26:28.399Z,86.79
2022-10-01T11:29:14.361Z,86.47
2022-10-01T11:31:43.946Z,86.25
2022-10-01T11:34:31.163Z,87.38
2022-10-01T11:37:03.896Z,88.48
2022-10-01T11:39:34.642Z,88.48
2022-10-01T11:42:17.857Z,88.18
2022-10-01T11:45:00.677Z,88.64
2022-10-01T11:47:41.799Z,88.14
2022-10-01T11:50:16.962Z,88.76
2022-10-01T11:52:52.789Z,89.14
2022-10-01T11:55:38.597Z,89.20
2022-10-01T11:58:37.841Z,87.56
2022-10-01T12:01:15.635Z,86.08
2022-10-01T12:04:07.474Z,85.50
2022-10-01T12:06:58.415Z,83.85
2022-10-01T12:09:37.870Z,83.62
2022-10-01T12:12:19.469Z,82.23
2022-10-01T12:14:56.998Z,82.22
2022-10-01T12:17:40.700Z,84.05
2022-10-01T12:20:19.447Z,83.73
2022-10-01T12:22:47.887Z,84.52
2022-10-01T12:25:15.243Z,83.27
2022-10-01T12:28:11.601Z,84.57
2022-10-01T12:30:59.191Z,84.08
2022-10-01T12:33:29.071Z,81.33
2022-10-01T12:36:06.830Z,82.50
2022-10-01T12:39:00.936Z,82.14
2022-10-01T12:42:00.458Z,81.89
2022-10-01T12:44:38.278Z,79.83
2022-10-01T12:47:17.554Z,78.93
2022-10-01T12:49:52.304Z,78.62
2022-10-01T12:52:19.154Z,78.67
2022-10-01T12:54:48.689Z,79.06
2022-10-01T12:57:36.998Z,79.21
2022-10-01T13:00:09.703Z,80.46
2022-10-01T13:03:01.323Z,79.99
2022-10-01T13:05:51.305Z,78.34
2022-10-01T13:08:34.039Z,79.49
2022-10-01T13:11:22.476Z,75.37
2022-10-01T13:13:51.638Z,76.34
2022-10-01T13:16:29.426Z,70.69
2022-10-01T13:19:34.910Z,72.77
2022-10-01T13:22:45.205Z,75.12
2022-10-01T13:25:33.523Z,73.19
2022-10-01T13:28:05.838Z,75.16
2022-10-01T13:30:51.630Z,73.43
2022-10-01T13:33:27.472Z,71.64
2022-10-01T13:36:00.350Z,69.27
2022-10-01T13:38:30.589Z,68.60
2022-10-01T13:41:06.433Z,69.70
2022-10-01T13:43:35.534Z,66.74
2022-10-01T13:46:11.163Z,66.05
2022-10-01T13:48:47.176Z,69.75
2022-10-01T13:51:15.636Z,69.93
2022-10-01T13:53:42.309Z,70.76
2022-10-01T13:56:13.119Z,72.45
2022-10-01T13:58:44.899Z,72.34
2022-10-01T14:01:23.573Z,71.21
2022-10-01T14:04:02.699Z,70.62
2022-10-01T14:06:35.503Z,69.29
2022-10-01T14:09:29.776Z,71.79
2022-10-01T14:12:24.930Z,71.69
2022-10-01T14:15:15.487Z,67.86
2022-10-01T14:17:44.792Z,70.38
2022-10-01T14:20:33.301Z,71.97
2022-10-01T14:23:14.017Z,71.06
2022-10-01T14:26:08.704Z,71.06
2022-10-01T14:28:59.842Z,70.86
2022-10-01T14:31:52.658Z,71.74
2022-10-01T14:34:29.555Z,71.86
2022-10-01T14:36:56.691Z,71.07
2022-10-01T14:39:26.879Z,70.94
2022-10-01T14:41:55.920Z,70.58
2022-10-01T14:44:36.526Z,71.83
2022-10-01T14:47:22.271Z,73.06
2022-10-01T14:49:50.207Z,72.93
2022-10-01T14:52:19.570Z,72.86
2022-10-01T14:54:51.601Z,73.41
2022-10-01T14:57:39.651Z,74.13
2022-10-01T15:00:12.891Z,74.68
2022-10-01T15:02:46.653Z,75.65
2022-10-01T15:05:25.666Z,75.00
2022-10-01T15:07:52.668Z,74.42
2022-10-01T15:10:21.989Z,75.74
2022-10-01T15:12:51.953Z,75.24
2022-10-01T15:15:21.925Z,77.04
2022-10-01T15:17:49.414Z,78.13
2022-10-01T15:20:17.513Z,79.39
2022-10-01T15:22:47.218Z,79.38
2022-10-01T15:25:21.117Z,79.68
2022-10-01T15:27:49.456Z,79.93
2022-10-01T15:30:18.478Z,80.10
2022-10-01T15:32:50.498Z,79.59
2022-10-01T15:35:23.532Z,80.23
2022-10-01T15:37:51.875Z,80.47
2022-10-01T15:40:36.636Z,80.13
2022-10-01T15:43:23.759Z,81.36
2022-10-01T15:46:12.068Z,81.01
2022-10-01T15:48:39.098Z,79.63
2022-10-01T15:51:15.578Z,80.60
2022-10-01T15:53:42.967Z,81.03
2022-10-01T15:56:14.379Z,81.12
2022-10-01T15:58:56.342Z,81.06
2022-10-01T16:01:30.130Z,81.31
2022-10-01T16:04:05.642Z,81.35
2022-10-01T16:06:42.822Z,81.61
2022-10-01T16:09:22.916Z,81.48
2022-10-01T16:11:57.652Z,82.10
2022-10-01T16:14:30.786Z,82.03
2022-10-01T16:17:19.226Z,82.18
2022-10-01T16:19:48.443Z,81.97
2022-10-01T16:22:21.222Z,81.65
2022-10-01T16:25:01.212Z,81.66
2022-10-01T16:27:29.516Z,81.73
2022-10-01T16:30:05.357Z,82.00
2022-10-01T16:32:33.988Z,81.58
2022-10-01T16:35:22.347Z,81.81
2022-10-01T16:37:51.494Z,81.57
2022-10-01T16:40:21.150Z,81.97
2022-10-01T16:42:52.201Z,81.95
2022-10-01T16:45:22.778Z,81.94
2022-10-01T16:47:49.566Z,81.70
2022-10-01T16:50:19.325Z,81.92
2022-10-01T16:52:46.113Z,81.79
2022-10-01T16:55:22.895Z,81.61
2022-10-01T16:57:51.193Z,81.51
2022-10-01T17:00:20.067Z,81.58
2022-10-01T17:02:47.018Z,81.78
2022-10-01T17:05:20.748Z,81.88
2022-10-01T17:07:47.673Z,81.80
2022-10-01T17:10:15.936Z,81.83
2022-10-01T17:12:44.035Z,81.72
2022-10-01T17:15:15.921Z,81.98
2022-10-01T17:17:43.180Z,82.09
2022-10-01T17:20:10.393Z,81.68
2022-10-01T17:22:39.175Z,81.28
2022-10-01T17:25:07.716Z,81.63
2022-10-01T17:27:34.696Z,81.83
2022-10-01T17:30:01.853Z,81.94
2022-10-01T17:32:28.833Z,82.04
2022-10-01T17:34:55.727Z,82.05
2022-10-01T17:37:24.129Z,82.13
2022-10-01T17:39:51.236Z,82.35
2022-10-01T17:42:18.377Z,82.61
2022-10-01T17:44:45.618Z,82.93
2022-10-01T17:47:12.838Z,82.91
2022-10-01T17:49:40.044Z,83.35
2022-10-01T17:52:07.085Z,83.25
2022-10-01T17:54:36.571Z,83.49
2022-10-01T17:57:03.955Z,83.72
2022-10-01T17:59:31.244Z,84.07
2022-10-01T18:01:58.611Z,84.31
2022-10-01T18:04:26.316Z,84.43
2022-10-01T18:06:57.913Z,84.71
2022-10-01T18:09:26.516Z,84.79
2022-10-01T18:11:53.347Z,84.94
2022-10-01T18:14:20.187Z,85.29
2022-10-01T18:16:47.108Z,85.39
2022-10-01T18:22:01.701Z,85.49
2022-10-01T18:24:29.199Z,85.81
2022-10-01T18:26:56.675Z,85.99
2022-10-01T18:29:26.591Z,86.37
2022-10-01T18:32:23.673Z,85.98
2022-10-01T18:35:00.428Z,86.47
2022-10-01T18:37:40.323Z,86.62
2022-10-01T18:40:10.344Z,86.72
2022-10-01T18:43:00.231Z,86.96
2022-10-01T18:46:05.346Z,87.11
2022-10-01T18:48:56.827Z,87.13
2022-10-01T18:51:52.116Z,87.29
2022-10-01T18:54:37.672Z,87.31
2022-10-01T18:57:35.607Z,87.42
2022-10-01T19:00:23.848Z,87.84
2022-10-01T19:03:21.612Z,87.79
2022-10-01T19:05:59.419Z,87.94
2022-10-01T19:08:35.288Z,88.05
2022-10-01T19:11:18.338Z,88.03
2022-10-01T19:13:58.455Z,88.00
2022-10-01T19:16:31.232Z,88.10
2022-10-01T19:19:25.866Z,88.42
2022-10-01T19:22:01.421Z,88.51
2022-10-01T19:24:54.444Z,88.60
2022-10-01T19:28:01.872Z,88.68
2022-10-01T19:30:40.757Z,88.66
2022-10-01T19:33:13.287Z,88.79
2022-10-01T19:35:44.166Z,88.87
2022-10-01T19:38:36.618Z,89.09
2022-10-01T19:41:49.161Z,89.26
2022-10-01T19:44:24.262Z,88.97
2022-10-01T19:46:52.726Z,89.15
2022-10-01T19:49:31.684Z,89.12
2022-10-01T19:52:19.955Z,89.15
2022-10-01T19:54:52.716Z,89.22
2022-10-01T19:57:25.969Z,89.14
2022-10-01T20:00:07.618Z,89.29
2022-10-01T20:02:45.971Z,89.26
2022-10-01T20:05:36.321Z,89.12
2022-10-01T20:08:16.406Z,89.12
2022-10-01T20:11:04.093Z,89.09
2022-10-01T20:13:39.962Z,88.94
2022-10-01T20:16:28.199Z,89.27
2022-10-01T20:19:13.972Z,89.11
2022-10-01T20:21:54.657Z,88.98
2022-10-01T20:24:43.357Z,89.08
2022-10-01T20:27:19.022Z,89.03
2022-10-01T20:29:54.916Z,89.12
2022-10-01T20:32:21.966Z,89.24
2022-10-01T20:35:01.902Z,89.28
2022-10-01T20:37:38.441Z,89.17
2022-10-01T20:40:25.278Z,89.29
2022-10-01T20:43:07.375Z,89.41
2022-10-01T20:45:35.631Z,89.47
2022-10-01T20:48:25.469Z,89.33
2022-10-01T20:50:55.683Z,89.49
2022-10-01T20:53:46.654Z,89.61
2022-10-01T20:56:26.291Z,89.75
2022-10-01T20:58:59.683Z,89.71
2022-10-01T21:01:30.362Z,89.86
2022-10-01T21:04:03.849Z,90.10
2022-10-01T21:06:39.364Z,90.09
2022-10-01T21:09:25.192Z,90.34
2022-10-01T21:12:02.186Z,90.29
2022-10-01T21:14:45.839Z,90.45
2022-10-01T21:17:30.897Z,90.63
2022-10-01T21:20:20.408Z,90.59
2022-10-01T21:22:58.014Z,90.52
2022-10-01T21:25:59.887Z,90.73
2022-10-01T21:28:43.508Z,90.97
2022-10-01T21:31:25.566Z,91.03
2022-10-01T21:33:57.840Z,91.12
2022-10-01T21:36:59.785Z,91.20
2022-10-01T21:40:23.883Z,91.31
2022-10-01T21:43:09.003Z,91.37
2022-10-01T21:45:43.632Z,91.55
2022-10-01T21:48:51.756Z,91.74
2022-10-01T21:51:29.396Z,92.03
2022-10-01T21:54:11.969Z,92.08
2022-10-01T21:57:20.174Z,92.14
2022-10-01T22:00:09.400Z,92.17
2022-10-01T22:02:58.458Z,92.44
2022-10-01T22:05:52.178Z,92.45
2022-10-01T22:08:40.579Z,92.74
2022-10-01T22:11:24.307Z,92.73
2022-10-01T22:13:57.450Z,92.96
2022-10-01T22:16:29.339Z,92.97
2022-10-01T22:18:57.910Z,93.08
2022-10-01T22:21:44.865Z,93.10
2022-10-01T22:24:16.318Z,93.37
2022-10-01T22:26:49.408Z,93.36
2022-10-01T22:29:25.126Z,93.68
2022-10-01T22:31:57.387Z,93.73
2022-10-01T22:34:28.318Z,93.83
2022-10-01T22:37:12.786Z,94.04
2022-10-01T22:39:43.513Z,94.18
2022-10-01T22:42:42.709Z,94.44
2022-10-01T22:45:14.270Z,94.47
2022-10-01T22:47:56.628Z,94.73
2022-10-01T22:50:38.162Z,94.80
2022-10-01T22:53:31.537Z,95.15
2022-10-01T22:55:58.430Z,94.98
2022-10-01T22:58:52.868Z,94.88
2022-10-01T23:01:59.432Z,94.69
2022-10-01T23:04:45.034Z,94.42
2022-10-01T23:07:35.061Z,94.18
2022-10-01T23:10:14.088Z,93.87
2022-10-01T23:12:55.883Z,93.95
2022-10-01T23:15:39.423Z,94.10
2022-10-01T23:18:19.520Z,94.08
2022-10-01T23:21:14.380Z,94.35
2022-10-01T23:23:46.534Z,94.42
2022-10-01T23:26:32.690Z,94.72
2022-10-01T23:29:34.330Z,94.31
2022-10-01T23:32:07.028Z,94.47
2022-10-01T23:34:44.482Z,94.46
2022-10-01T23:37:29.309Z,94.42
2022-10-01T23:40:04.479Z,94.43
2022-10-01T23:42:37.730Z,94.46
2022-10-01T23:45:20.486Z,94.29
2022-10-01T23:47:59.354Z,94.28
2022-10-01T23:51:00.503Z,94.26
2022-10-01T23:53:38.249Z,93.97
2022-10-01T23:56:39.971Z,93.94
2022-10-01T23:59:12.614Z,93.79
